Metar z połowy godziny Komunikat METAR ze strony awiacja.imgw.pl Metar G00 EPPO METAR EPPO 261730Z 30008KT 9999 -SN OVC012 00/M01 Q1010 =